sensor_id;sensor_type;location;lat;lon;timestamp;P1;durP1;ratioP1;P2;durP2;ratioP2
24567;SDS011;12731;52.182;8.716;2023-02-01T00:00:55;24.98;;;4.40;;
24567;SDS011;12731;52.182;8.716;2023-02-01T00:03:21;30.38;;;5.28;;
24567;SDS011;12731;52.182;8.716;2023-02-01T00:05:55;26.90;;;4.32;;
24567;SDS011;12731;52.182;8.716;2023-02-01T00:08:23;27.08;;;4.90;;
24567;SDS011;12731;52.182;8.716;2023-02-01T00:10:57;27.90;;;5.30;;
24567;SDS011;12731;52.182;8.716;2023-02-01T00:13:24;24.23;;;4.15;;
24567;SDS011;12731;52.182;8.716;2023-02-01T00:15:50;28.95;;;5.20;;
24567;SDS011;12731;52.182;8.716;2023-02-01T00:18:17;26.20;;;4.68;;
24567;SDS011;12731;52.182;8.716;2023-02-01T00:20:46;24.55;;;4.15;;
24567;SDS011;12731;52.182;8.716;2023-02-01T00:23:13;28.15;;;4.72;;
24567;SDS011;12731;52.182;8.716;2023-02-01T00:25:39;28.02;;;4.65;;
24567;SDS011;12731;52.182;8.716;2023-02-01T00:28:05;27.25;;;4.18;;
24567;SDS011;12731;52.182;8.716;2023-02-01T00:30:32;26.75;;;4.20;;
24567;SDS011;12731;52.182;8.716;2023-02-01T00:32:58;18.35;;;3.92;;
24567;SDS011;12731;52.182;8.716;2023-02-01T00:35:26;25.63;;;4.80;;
24567;SDS011;12731;52.182;8.716;2023-02-01T00:37:52;23.13;;;4.43;;
24567;SDS011;12731;52.182;8.716;2023-02-01T00:40:19;20.50;;;4.30;;
24567;SDS011;12731;52.182;8.716;2023-02-01T00:42:46;19.38;;;3.75;;
24567;SDS011;12731;52.182;8.716;2023-02-01T00:45:12;21.65;;;3.95;;
24567;SDS011;12731;52.182;8.716;2023-02-01T00:47:39;20.80;;;4.18;;
24567;SDS011;12731;52.182;8.716;2023-02-01T00:50:05;27.17;;;4.70;;
24567;SDS011;12731;52.182;8.716;2023-02-01T00:52:32;23.50;;;4.22;;
24567;SDS011;12731;52.182;8.716;2023-02-01T00:54:58;22.48;;;3.53;;
24567;SDS011;12731;52.182;8.716;2023-02-01T00:57:25;20.90;;;4.60;;
24567;SDS011;12731;52.182;8.716;2023-02-01T00:59:51;23.63;;;4.03;;
24567;SDS011;12731;52.182;8.716;2023-02-01T01:02:17;22.80;;;4.75;;
24567;SDS011;12731;52.182;8.716;2023-02-01T01:04:44;25.13;;;4.20;;
24567;SDS011;12731;52.182;8.716;2023-02-01T01:07:10;27.30;;;5.15;;
24567;SDS011;12731;52.182;8.716;2023-02-01T01:09:37;22.88;;;4.15;;
24567;SDS011;12731;52.182;8.716;2023-02-01T01:12:05;30.13;;;4.88;;
24567;SDS011;12731;52.182;8.716;2023-02-01T01:14:32;22.17;;;4.28;;
24567;SDS011;12731;52.182;8.716;2023-02-01T01:16:58;20.08;;;4.55;;
24567;SDS011;12731;52.182;8.716;2023-02-01T01:19:25;24.58;;;4.50;;
24567;SDS011;12731;52.182;8.716;2023-02-01T01:21:51;24.60;;;4.90;;
24567;SDS011;12731;52.182;8.716;2023-02-01T01:24:18;29.85;;;4.70;;
24567;SDS011;12731;52.182;8.716;2023-02-01T01:26:44;26.00;;;4.72;;
24567;SDS011;12731;52.182;8.716;2023-02-01T01:29:11;28.70;;;4.75;;
24567;SDS011;12731;52.182;8.716;2023-02-01T01:31:37;29.17;;;5.38;;
24567;SDS011;12731;52.182;8.716;2023-02-01T01:34:04;30.10;;;4.80;;
24567;SDS011;12731;52.182;8.716;2023-02-01T01:36:32;23.80;;;4.07;;
24567;SDS011;12731;52.182;8.716;2023-02-01T01:38:58;26.00;;;4.75;;
24567;SDS011;12731;52.182;8.716;2023-02-01T01:41:26;22.27;;;4.47;;
24567;SDS011;12731;52.182;8.716;2023-02-01T01:43:56;21.15;;;3.90;;
24567;SDS011;12731;52.182;8.716;2023-02-01T01:46:31;27.15;;;4.60;;
24567;SDS011;12731;52.182;8.716;2023-02-01T01:51:29;26.73;;;4.63;;
24567;SDS011;12731;52.182;8.716;2023-02-01T01:54:01;27.02;;;4.47;;
24567;SDS011;12731;52.182;8.716;2023-02-01T01:56:31;23.98;;;4.57;;
24567;SDS011;12731;52.182;8.716;2023-02-01T01:58:58;26.63;;;4.68;;
24567;SDS011;12731;52.182;8.716;2023-02-01T02:01:25;19.67;;;4.22;;
24567;SDS011;12731;52.182;8.716;2023-02-01T02:03:52;23.00;;;5.07;;
24567;SDS011;12731;52.182;8.716;2023-02-01T02:09:06;23.83;;;4.72;;
24567;SDS011;12731;52.182;8.716;2023-02-01T02:11:32;20.70;;;4.03;;
24567;SDS011;12731;52.182;8.716;2023-02-01T02:13:59;23.58;;;5.10;;
24567;SDS011;12731;52.182;8.716;2023-02-01T02:27:46;32.63;;;7.05;;
24567;SDS011;12731;52.182;8.716;2023-02-01T02:30:51;34.28;;;6.80;;
24567;SDS011;12731;52.182;8.716;2023-02-01T02:33:46;24.15;;;4.90;;
24567;SDS011;12731;52.182;8.716;2023-02-01T02:41:54;26.38;;;5.25;;
24567;SDS011;12731;52.182;8.716;2023-02-01T02:44:57;18.15;;;4.70;;
24567;SDS011;12731;52.182;8.716;2023-02-01T02:47:55;22.77;;;4.85;;
24567;SDS011;12731;52.182;8.716;2023-02-01T02:50:28;18.38;;;5.75;;
24567;SDS011;12731;52.182;8.716;2023-02-01T02:53:24;28.45;;;5.38;;
24567;SDS011;12731;52.182;8.716;2023-02-01T02:56:32;25.40;;;5.40;;
24567;SDS011;12731;52.182;8.716;2023-02-01T02:59:18;28.95;;;5.53;;
24567;SDS011;12731;52.182;8.716;2023-02-01T03:02:04;20.95;;;4.80;;
24567;SDS011;12731;52.182;8.716;2023-02-01T03:04:53;22.85;;;4.90;;
24567;SDS011;12731;52.182;8.716;2023-02-01T03:13:10;21.10;;;4.97;;
24567;SDS011;12731;52.182;8.716;2023-02-01T03:15:40;27.20;;;5.72;;
24567;SDS011;12731;52.182;8.716;2023-02-01T03:18:13;24.88;;;5.13;;
24567;SDS011;12731;52.182;8.716;2023-02-01T03:20:50;24.30;;;5.05;;
24567;SDS011;12731;52.182;8.716;2023-02-01T03:23:19;28.25;;;5.20;;
24567;SDS011;12731;52.182;8.716;2023-02-01T03:25:47;19.50;;;5.30;;
24567;SDS011;12731;52.182;8.716;2023-02-01T03:28:15;21.90;;;4.40;;
24567;SDS011;12731;52.182;8.716;2023-02-01T03:30:45;19.10;;;4.55;;
24567;SDS011;12731;52.182;8.716;2023-02-01T03:33:13;25.40;;;5.95;;
24567;SDS011;12731;52.182;8.716;2023-02-01T03:35:57;26.17;;;5.78;;
24567;SDS011;12731;52.182;8.716;2023-02-01T03:43:32;22.75;;;5.57;;
24567;SDS011;12731;52.182;8.716;2023-02-01T03:46:03;26.75;;;4.80;;
24567;SDS011;12731;52.182;8.716;2023-02-01T03:48:32;18.20;;;4.50;;
24567;SDS011;12731;52.182;8.716;2023-02-01T03:51:00;25.73;;;4.93;;
24567;SDS011;12731;52.182;8.716;2023-02-01T03:53:27;20.77;;;4.88;;
24567;SDS011;12731;52.182;8.716;2023-02-01T03:55:54;21.65;;;4.63;;
24567;SDS011;12731;52.182;8.716;2023-02-01T03:58:22;20.80;;;4.50;;
24567;SDS011;12731;52.182;8.716;2023-02-01T04:00:56;19.52;;;4.40;;
24567;SDS011;12731;52.182;8.716;2023-02-01T04:03:24;18.73;;;4.88;;
24567;SDS011;12731;52.182;8.716;2023-02-01T04:05:51;23.90;;;4.38;;
24567;SDS011;12731;52.182;8.716;2023-02-01T04:08:19;21.17;;;4.20;;
24567;SDS011;12731;52.182;8.716;2023-02-01T04:10:45;20.98;;;4.15;;
24567;SDS011;12731;52.182;8.716;2023-02-01T04:13:12;25.20;;;5.05;;
24567;SDS011;12731;52.182;8.716;2023-02-01T04:15:39;23.98;;;4.75;;
24567;SDS011;12731;52.182;8.716;2023-02-01T04:18:08;27.60;;;4.60;;
24567;SDS011;12731;52.182;8.716;2023-02-01T04:20:34;22.13;;;4.45;;
24567;SDS011;12731;52.182;8.716;2023-02-01T04:23:01;19.92;;;4.68;;
24567;SDS011;12731;52.182;8.716;2023-02-01T04:25:29;21.73;;;4.65;;
24567;SDS011;12731;52.182;8.716;2023-02-01T04:27:55;21.33;;;4.50;;
24567;SDS011;12731;52.182;8.716;2023-02-01T04:30:22;21.30;;;4.22;;
24567;SDS011;12731;52.182;8.716;2023-02-01T04:32:50;20.63;;;4.53;;
24567;SDS011;12731;52.182;8.716;2023-02-01T04:35:16;22.02;;;5.18;;
24567;SDS011;12731;52.182;8.716;2023-02-01T04:37:43;20.15;;;4.50;;
24567;SDS011;12731;52.182;8.716;2023-02-01T04:40:10;20.33;;;4.25;;
24567;SDS011;12731;52.182;8.716;2023-02-01T04:42:37;22.33;;;4.00;;
24567;SDS011;12731;52.182;8.716;2023-02-01T04:45:03;19.63;;;4.57;;
24567;SDS011;12731;52.182;8.716;2023-02-01T04:47:30;21.30;;;3.88;;
24567;SDS011;12731;52.182;8.716;2023-02-01T04:49:59;20.10;;;4.32;;
24567;SDS011;12731;52.182;8.716;2023-02-01T04:52:25;27.60;;;4.57;;
24567;SDS011;12731;52.182;8.716;2023-02-01T04:54:53;23.15;;;4.55;;
24567;SDS011;12731;52.182;8.716;2023-02-01T04:57:24;24.65;;;4.32;;
24567;SDS011;12731;52.182;8.716;2023-02-01T04:59:51;23.00;;;4.10;;
24567;SDS011;12731;52.182;8.716;2023-02-01T05:02:17;22.80;;;4.22;;
24567;SDS011;12731;52.182;8.716;2023-02-01T05:04:43;26.27;;;4.63;;
24567;SDS011;12731;52.182;8.716;2023-02-01T05:07:10;25.00;;;4.35;;
24567;SDS011;12731;52.182;8.716;2023-02-01T05:09:36;22.15;;;4.82;;
24567;SDS011;12731;52.182;8.716;2023-02-01T05:12:03;14.77;;;3.67;;
24567;SDS011;12731;52.182;8.716;2023-02-01T05:14:49;21.83;;;4.13;;
24567;SDS011;12731;52.182;8.716;2023-02-01T05:17:15;23.88;;;4.47;;
24567;SDS011;12731;52.182;8.716;2023-02-01T05:19:42;19.08;;;4.38;;
24567;SDS011;12731;52.182;8.716;2023-02-01T05:22:08;25.23;;;4.97;;
24567;SDS011;12731;52.182;8.716;2023-02-01T05:24:35;19.88;;;4.78;;
24567;SDS011;12731;52.182;8.716;2023-02-01T05:27:01;20.20;;;4.30;;
24567;SDS011;12731;52.182;8.716;2023-02-01T05:29:28;21.60;;;4.03;;
24567;SDS011;12731;52.182;8.716;2023-02-01T05:31:54;23.42;;;4.22;;
24567;SDS011;12731;52.182;8.716;2023-02-01T05:34:21;20.98;;;3.97;;
24567;SDS011;12731;52.182;8.716;2023-02-01T05:36:47;21.98;;;4.13;;
24567;SDS011;12731;52.182;8.716;2023-02-01T05:39:14;15.75;;;3.72;;
24567;SDS011;12731;52.182;8.716;2023-02-01T05:41:40;24.33;;;4.25;;
24567;SDS011;12731;52.182;8.716;2023-02-01T05:44:07;20.23;;;4.10;;
24567;SDS011;12731;52.182;8.716;2023-02-01T05:46:34;13.65;;;3.58;;
24567;SDS011;12731;52.182;8.716;2023-02-01T05:49:01;21.58;;;4.10;;
24567;SDS011;12731;52.182;8.716;2023-02-01T05:51:28;20.95;;;4.25;;
24567;SDS011;12731;52.182;8.716;2023-02-01T05:53:54;23.95;;;4.78;;
24567;SDS011;12731;52.182;8.716;2023-02-01T05:56:21;19.05;;;4.25;;
24567;SDS011;12731;52.182;8.716;2023-02-01T05:58:47;19.85;;;4.70;;
24567;SDS011;12731;52.182;8.716;2023-02-01T06:01:14;20.00;;;4.53;;
24567;SDS011;12731;52.182;8.716;2023-02-01T06:03:40;24.23;;;4.72;;
24567;SDS011;12731;52.182;8.716;2023-02-01T06:06:07;23.70;;;5.80;;
24567;SDS011;12731;52.182;8.716;2023-02-01T06:08:33;31.63;;;5.82;;
24567;SDS011;12731;52.182;8.716;2023-02-01T06:11:00;19.38;;;4.07;;
24567;SDS011;12731;52.182;8.716;2023-02-01T06:13:27;24.20;;;4.55;;
24567;SDS011;12731;52.182;8.716;2023-02-01T06:15:54;22.85;;;4.28;;
24567;SDS011;12731;52.182;8.716;2023-02-01T06:18:22;29.40;;;4.93;;
24567;SDS011;12731;52.182;8.716;2023-02-01T06:20:52;26.27;;;5.50;;
24567;SDS011;12731;52.182;8.716;2023-02-01T06:23:20;24.33;;;5.30;;
24567;SDS011;12731;52.182;8.716;2023-02-01T06:25:50;18.15;;;4.32;;
24567;SDS011;12731;52.182;8.716;2023-02-01T06:28:18;18.48;;;4.65;;
24567;SDS011;12731;52.182;8.716;2023-02-01T06:30:44;31.92;;;6.63;;
24567;SDS011;12731;52.182;8.716;2023-02-01T06:33:13;24.92;;;5.15;;
24567;SDS011;12731;52.182;8.716;2023-02-01T06:35:41;21.35;;;4.28;;
24567;SDS011;12731;52.182;8.716;2023-02-01T06:38:10;18.92;;;4.40;;
24567;SDS011;12731;52.182;8.716;2023-02-01T06:40:37;25.33;;;5.13;;
24567;SDS011;12731;52.182;8.716;2023-02-01T06:43:04;19.63;;;4.72;;
24567;SDS011;12731;52.182;8.716;2023-02-01T06:45:30;21.40;;;4.07;;
24567;SDS011;12731;52.182;8.716;2023-02-01T06:47:58;25.88;;;5.30;;
24567;SDS011;12731;52.182;8.716;2023-02-01T06:50:24;21.83;;;4.57;;
24567;SDS011;12731;52.182;8.716;2023-02-01T06:52:51;31.02;;;6.40;;
24567;SDS011;12731;52.182;8.716;2023-02-01T06:55:17;24.25;;;4.65;;
24567;SDS011;12731;52.182;8.716;2023-02-01T06:57:44;21.20;;;4.18;;
24567;SDS011;12731;52.182;8.716;2023-02-01T07:00:10;17.83;;;4.68;;
24567;SDS011;12731;52.182;8.716;2023-02-01T07:02:37;19.30;;;4.57;;
24567;SDS011;12731;52.182;8.716;2023-02-01T07:05:05;21.05;;;4.30;;
24567;SDS011;12731;52.182;8.716;2023-02-01T07:07:31;21.63;;;4.38;;
24567;SDS011;12731;52.182;8.716;2023-02-01T07:09:58;19.08;;;4.30;;
24567;SDS011;12731;52.182;8.716;2023-02-01T07:12:24;23.48;;;4.78;;
24567;SDS011;12731;52.182;8.716;2023-02-01T07:14:50;22.50;;;4.50;;
24567;SDS011;12731;52.182;8.716;2023-02-01T07:17:17;23.13;;;5.20;;
24567;SDS011;12731;52.182;8.716;2023-02-01T07:19:43;25.23;;;4.78;;
24567;SDS011;12731;52.182;8.716;2023-02-01T07:22:10;20.65;;;4.50;;
24567;SDS011;12731;52.182;8.716;2023-02-01T07:24:36;18.70;;;4.18;;
24567;SDS011;12731;52.182;8.716;2023-02-01T07:27:03;26.88;;;5.03;;
24567;SDS011;12731;52.182;8.716;2023-02-01T07:29:29;22.05;;;4.18;;
24567;SDS011;12731;52.182;8.716;2023-02-01T07:31:58;23.55;;;4.57;;
24567;SDS011;12731;52.182;8.716;2023-02-01T07:34:25;19.85;;;3.95;;
24567;SDS011;12731;52.182;8.716;2023-02-01T07:36:51;19.40;;;4.13;;
24567;SDS011;12731;52.182;8.716;2023-02-01T07:39:18;24.27;;;5.13;;
24567;SDS011;12731;52.182;8.716;2023-02-01T07:41:45;17.58;;;3.90;;
24567;SDS011;12731;52.182;8.716;2023-02-01T07:44:12;20.45;;;4.20;;
24567;SDS011;12731;52.182;8.716;2023-02-01T07:46:38;22.52;;;5.45;;
24567;SDS011;12731;52.182;8.716;2023-02-01T07:49:05;21.92;;;4.57;;
24567;SDS011;12731;52.182;8.716;2023-02-01T07:51:32;17.30;;;3.70;;
24567;SDS011;12731;52.182;8.716;2023-02-01T07:53:58;20.85;;;4.78;;
24567;SDS011;12731;52.182;8.716;2023-02-01T07:56:25;19.35;;;4.20;;
24567;SDS011;12731;52.182;8.716;2023-02-01T07:58:53;18.38;;;4.32;;
24567;SDS011;12731;52.182;8.716;2023-02-01T08:01:22;21.35;;;4.47;;
24567;SDS011;12731;52.182;8.716;2023-02-01T08:03:52;21.15;;;4.60;;
24567;SDS011;12731;52.182;8.716;2023-02-01T08:06:22;19.38;;;4.45;;
24567;SDS011;12731;52.182;8.716;2023-02-01T08:08:49;22.17;;;4.35;;
24567;SDS011;12731;52.182;8.716;2023-02-01T08:11:16;17.45;;;4.40;;
24567;SDS011;12731;52.182;8.716;2023-02-01T08:13:43;18.30;;;4.03;;
24567;SDS011;12731;52.182;8.716;2023-02-01T08:16:11;20.83;;;4.28;;
24567;SDS011;12731;52.182;8.716;2023-02-01T08:18:39;19.38;;;4.18;;
24567;SDS011;12731;52.182;8.716;2023-02-01T08:21:16;24.67;;;4.32;;
24567;SDS011;12731;52.182;8.716;2023-02-01T08:23:44;20.48;;;4.38;;
24567;SDS011;12731;52.182;8.716;2023-02-01T08:26:12;18.90;;;4.45;;
24567;SDS011;12731;52.182;8.716;2023-02-01T08:28:47;23.17;;;5.03;;
24567;SDS011;12731;52.182;8.716;2023-02-01T08:31:22;18.42;;;4.22;;
24567;SDS011;12731;52.182;8.716;2023-02-01T08:33:51;24.52;;;4.50;;
24567;SDS011;12731;52.182;8.716;2023-02-01T08:36:19;21.73;;;4.00;;
24567;SDS011;12731;52.182;8.716;2023-02-01T08:38:46;23.08;;;4.75;;
24567;SDS011;12731;52.182;8.716;2023-02-01T08:41:14;21.58;;;4.40;;
24567;SDS011;12731;52.182;8.716;2023-02-01T08:43:43;19.05;;;3.70;;
24567;SDS011;12731;52.182;8.716;2023-02-01T08:46:10;26.92;;;4.95;;
24567;SDS011;12731;52.182;8.716;2023-02-01T08:48:37;22.30;;;4.10;;
24567;SDS011;12731;52.182;8.716;2023-02-01T08:51:08;17.90;;;3.63;;
24567;SDS011;12731;52.182;8.716;2023-02-01T08:53:37;21.50;;;4.18;;
24567;SDS011;12731;52.182;8.716;2023-02-01T08:56:04;15.88;;;4.30;;
24567;SDS011;12731;52.182;8.716;2023-02-01T08:58:31;22.15;;;5.03;;
24567;SDS011;12731;52.182;8.716;2023-02-01T09:01:01;19.10;;;4.57;;
24567;SDS011;12731;52.182;8.716;2023-02-01T09:03:29;16.98;;;4.40;;
24567;SDS011;12731;52.182;8.716;2023-02-01T09:06:05;19.60;;;4.40;;
24567;SDS011;12731;52.182;8.716;2023-02-01T09:08:36;16.88;;;4.13;;
24567;SDS011;12731;52.182;8.716;2023-02-01T09:11:07;15.75;;;3.72;;
24567;SDS011;12731;52.182;8.716;2023-02-01T09:13:38;20.23;;;4.40;;
24567;SDS011;12731;52.182;8.716;2023-02-01T09:16:04;21.25;;;4.85;;
24567;SDS011;12731;52.182;8.716;2023-02-01T09:18:31;19.25;;;4.60;;
24567;SDS011;12731;52.182;8.716;2023-02-01T09:20:58;19.05;;;4.13;;
24567;SDS011;12731;52.182;8.716;2023-02-01T09:23:24;20.33;;;4.25;;
24567;SDS011;12731;52.182;8.716;2023-02-01T09:25:51;15.82;;;3.95;;
24567;SDS011;12731;52.182;8.716;2023-02-01T09:28:18;20.65;;;4.35;;
24567;SDS011;12731;52.182;8.716;2023-02-01T09:30:45;13.30;;;3.97;;
24567;SDS011;12731;52.182;8.716;2023-02-01T09:33:11;21.23;;;4.53;;
24567;SDS011;12731;52.182;8.716;2023-02-01T09:35:38;22.25;;;4.40;;
24567;SDS011;12731;52.182;8.716;2023-02-01T09:38:04;24.67;;;4.60;;
24567;SDS011;12731;52.182;8.716;2023-02-01T09:40:31;16.00;;;3.67;;
24567;SDS011;12731;52.182;8.716;2023-02-01T09:43:04;17.25;;;4.25;;
24567;SDS011;12731;52.182;8.716;2023-02-01T09:48:19;19.85;;;3.92;;
24567;SDS011;12731;52.182;8.716;2023-02-01T09:50:53;25.77;;;4.68;;
24567;SDS011;12731;52.182;8.716;2023-02-01T09:55:50;17.33;;;4.93;;
24567;SDS011;12731;52.182;8.716;2023-02-01T09:58:31;14.43;;;3.20;;
24567;SDS011;12731;52.182;8.716;2023-02-01T10:01:01;18.70;;;4.00;;
24567;SDS011;12731;52.182;8.716;2023-02-01T10:03:30;11.80;;;3.33;;
24567;SDS011;12731;52.182;8.716;2023-02-01T10:06:05;21.45;;;3.85;;
24567;SDS011;12731;52.182;8.716;2023-02-01T10:22:10;19.35;;;3.80;;
24567;SDS011;12731;52.182;8.716;2023-02-01T10:27:47;15.68;;;3.58;;
24567;SDS011;12731;52.182;8.716;2023-02-01T10:30:19;21.50;;;3.85;;
24567;SDS011;12731;52.182;8.716;2023-02-01T10:32:48;21.55;;;4.30;;
24567;SDS011;12731;52.182;8.716;2023-02-01T10:35:21;17.40;;;3.97;;
24567;SDS011;12731;52.182;8.716;2023-02-01T10:37:50;16.30;;;3.85;;
24567;SDS011;12731;52.182;8.716;2023-02-01T10:40:21;16.25;;;3.97;;
24567;SDS011;12731;52.182;8.716;2023-02-01T10:42:51;22.35;;;4.20;;
24567;SDS011;12731;52.182;8.716;2023-02-01T10:45:20;25.48;;;4.53;;
24567;SDS011;12731;52.182;8.716;2023-02-01T10:47:49;22.23;;;4.25;;
24567;SDS011;12731;52.182;8.716;2023-02-01T10:52:59;12.83;;;3.77;;
24567;SDS011;12731;52.182;8.716;2023-02-01T10:58:16;20.30;;;4.00;;
24567;SDS011;12731;52.182;8.716;2023-02-01T11:01:04;17.63;;;3.97;;
24567;SDS011;12731;52.182;8.716;2023-02-01T11:03:42;20.77;;;4.43;;
24567;SDS011;12731;52.182;8.716;2023-02-01T11:06:28;19.27;;;3.80;;
24567;SDS011;12731;52.182;8.716;2023-02-01T11:09:00;19.83;;;3.83;;
24567;SDS011;12731;52.182;8.716;2023-02-01T11:14:18;14.85;;;3.90;;
24567;SDS011;12731;52.182;8.716;2023-02-01T11:17:34;20.73;;;4.68;;
24567;SDS011;12731;52.182;8.716;2023-02-01T11:19:43;14.05;;;3.70;;
24567;SDS011;12731;52.182;8.716;2023-02-01T11:22:10;15.65;;;3.45;;
24567;SDS011;12731;52.182;8.716;2023-02-01T11:24:38;18.15;;;3.47;;
24567;SDS011;12731;52.182;8.716;2023-02-01T11:27:05;16.90;;;4.13;;
24567;SDS011;12731;52.182;8.716;2023-02-01T11:29:48;16.48;;;3.65;;
24567;SDS011;12731;52.182;8.716;2023-02-01T11:32:17;16.83;;;3.53;;
24567;SDS011;12731;52.182;8.716;2023-02-01T11:34:49;19.67;;;3.60;;
24567;SDS011;12731;52.182;8.716;2023-02-01T11:39:56;22.73;;;4.30;;
24567;SDS011;12731;52.182;8.716;2023-02-01T11:42:25;19.63;;;4.47;;
24567;SDS011;12731;52.182;8.716;2023-02-01T11:45:16;13.77;;;3.75;;
24567;SDS011;12731;52.182;8.716;2023-02-01T11:47:46;16.60;;;3.80;;
24567;SDS011;12731;52.182;8.716;2023-02-01T11:50:15;16.02;;;4.10;;
24567;SDS011;12731;52.182;8.716;2023-02-01T11:52:49;14.80;;;3.22;;
24567;SDS011;12731;52.182;8.716;2023-02-01T11:58:26;15.70;;;3.97;;
24567;SDS011;12731;52.182;8.716;2023-02-01T12:09:00;15.05;;;3.58;;
24567;SDS011;12731;52.182;8.716;2023-02-01T12:28:40;12.27;;;3.45;;
24567;SDS011;12731;52.182;8.716;2023-02-01T12:31:30;9.77;;;2.60;;
24567;SDS011;12731;52.182;8.716;2023-02-01T12:36:46;13.20;;;3.28;;
24567;SDS011;12731;52.182;8.716;2023-02-01T12:39:21;13.75;;;3.15;;
24567;SDS011;12731;52.182;8.716;2023-02-01T12:47:00;12.50;;;3.30;;
24567;SDS011;12731;52.182;8.716;2023-02-01T12:52:05;15.45;;;3.55;;
24567;SDS011;12731;52.182;8.716;2023-02-01T12:57:30;12.93;;;3.83;;
24567;SDS011;12731;52.182;8.716;2023-02-01T13:00:05;13.23;;;3.70;;
24567;SDS011;12731;52.182;8.716;2023-02-01T13:02:41;15.80;;;4.65;;
24567;SDS011;12731;52.182;8.716;2023-02-01T13:05:17;15.27;;;4.25;;
24567;SDS011;12731;52.182;8.716;2023-02-01T13:07:49;15.95;;;4.50;;
24567;SDS011;12731;52.182;8.716;2023-02-01T13:18:46;12.05;;;4.78;;
24567;SDS011;12731;52.182;8.716;2023-02-01T13:21:18;10.82;;;4.68;;
24567;SDS011;12731;52.182;8.716;2023-02-01T13:23:49;14.53;;;5.20;;
24567;SDS011;12731;52.182;8.716;2023-02-01T13:26:16;16.58;;;5.22;;
24567;SDS011;12731;52.182;8.716;2023-02-01T13:28:56;13.52;;;5.22;;
24567;SDS011;12731;52.182;8.716;2023-02-01T13:37:22;13.10;;;4.15;;
24567;SDS011;12731;52.182;8.716;2023-02-01T13:45:17;14.70;;;4.50;;
24567;SDS011;12731;52.182;8.716;2023-02-01T13:47:48;14.05;;;4.93;;
24567;SDS011;12731;52.182;8.716;2023-02-01T13:50:35;16.27;;;4.60;;
24567;SDS011;12731;52.182;8.716;2023-02-01T13:53:16;16.52;;;5.18;;
24567;SDS011;12731;52.182;8.716;2023-02-01T13:55:45;15.07;;;5.20;;
24567;SDS011;12731;52.182;8.716;2023-02-01T14:00:45;15.77;;;4.70;;
24567;SDS011;12731;52.182;8.716;2023-02-01T14:08:11;16.65;;;5.97;;
24567;SDS011;12731;52.182;8.716;2023-02-01T14:10:46;16.58;;;5.82;;
24567;SDS011;12731;52.182;8.716;2023-02-01T14:13:28;20.88;;;5.68;;
24567;SDS011;12731;52.182;8.716;2023-02-01T14:29:09;17.20;;;4.00;;
24567;SDS011;12731;52.182;8.716;2023-02-01T14:42:20;10.57;;;3.28;;
24567;SDS011;12731;52.182;8.716;2023-02-01T14:44:48;13.57;;;3.20;;
24567;SDS011;12731;52.182;8.716;2023-02-01T14:52:38;10.40;;;3.13;;
24567;SDS011;12731;52.182;8.716;2023-02-01T14:55:20;12.63;;;2.70;;
24567;SDS011;12731;52.182;8.716;2023-02-01T14:57:52;13.52;;;2.47;;
24567;SDS011;12731;52.182;8.716;2023-02-01T15:00:24;12.48;;;2.38;;
24567;SDS011;12731;52.182;8.716;2023-02-01T15:02:56;11.00;;;2.50;;
24567;SDS011;12731;52.182;8.716;2023-02-01T15:05:42;10.50;;;3.05;;
24567;SDS011;12731;52.182;8.716;2023-02-01T15:08:14;12.20;;;2.55;;
24567;SDS011;12731;52.182;8.716;2023-02-01T15:10:45;13.93;;;2.83;;
24567;SDS011;12731;52.182;8.716;2023-02-01T15:13:24;9.52;;;2.67;;
24567;SDS011;12731;52.182;8.716;2023-02-01T15:16:05;11.35;;;2.58;;
24567;SDS011;12731;52.182;8.716;2023-02-01T15:18:36;10.38;;;2.10;;
24567;SDS011;12731;52.182;8.716;2023-02-01T15:21:03;12.55;;;2.72;;
24567;SDS011;12731;52.182;8.716;2023-02-01T15:23:51;13.02;;;2.20;;
24567;SDS011;12731;52.182;8.716;2023-02-01T15:26:36;9.85;;;2.53;;
24567;SDS011;12731;52.182;8.716;2023-02-01T15:29:02;16.27;;;3.13;;
24567;SDS011;12731;52.182;8.716;2023-02-01T15:31:36;14.65;;;2.78;;
24567;SDS011;12731;52.182;8.716;2023-02-01T15:34:04;11.13;;;2.25;;
24567;SDS011;12731;52.182;8.716;2023-02-01T15:36:31;11.88;;;2.95;;
24567;SDS011;12731;52.182;8.716;2023-02-01T15:39:11;14.52;;;3.00;;
24567;SDS011;12731;52.182;8.716;2023-02-01T15:41:59;12.15;;;3.08;;
24567;SDS011;12731;52.182;8.716;2023-02-01T15:44:38;16.27;;;3.15;;
24567;SDS011;12731;52.182;8.716;2023-02-01T15:47:16;17.20;;;3.00;;
24567;SDS011;12731;52.182;8.716;2023-02-01T15:49:50;19.67;;;3.35;;
24567;SDS011;12731;52.182;8.716;2023-02-01T15:52:32;15.85;;;3.17;;
24567;SDS011;12731;52.182;8.716;2023-02-01T15:55:03;16.70;;;3.47;;
24567;SDS011;12731;52.182;8.716;2023-02-01T15:57:36;18.65;;;3.45;;
24567;SDS011;12731;52.182;8.716;2023-02-01T16:00:22;19.35;;;3.67;;
24567;SDS011;12731;52.182;8.716;2023-02-01T16:05:54;16.33;;;3.08;;
24567;SDS011;12731;52.182;8.716;2023-02-01T16:08:16;15.10;;;3.20;;
24567;SDS011;12731;52.182;8.716;2023-02-01T16:10:48;16.60;;;3.47;;
24567;SDS011;12731;52.182;8.716;2023-02-01T16:13:17;13.30;;;3.53;;
24567;SDS011;12731;52.182;8.716;2023-02-01T16:15:44;18.17;;;3.53;;
24567;SDS011;12731;52.182;8.716;2023-02-01T16:18:14;17.27;;;3.58;;
24567;SDS011;12731;52.182;8.716;2023-02-01T16:20:44;23.73;;;3.80;;
24567;SDS011;12731;52.182;8.716;2023-02-01T16:23:11;13.25;;;3.38;;
24567;SDS011;12731;52.182;8.716;2023-02-01T16:25:39;20.67;;;3.70;;
24567;SDS011;12731;52.182;8.716;2023-02-01T16:28:06;21.50;;;4.30;;
24567;SDS011;12731;52.182;8.716;2023-02-01T16:30:32;18.27;;;3.90;;
24567;SDS011;12731;52.182;8.716;2023-02-01T16:32:59;17.92;;;4.35;;
24567;SDS011;12731;52.182;8.716;2023-02-01T16:35:32;19.65;;;4.22;;
24567;SDS011;12731;52.182;8.716;2023-02-01T16:38:04;17.88;;;3.90;;
24567;SDS011;12731;52.182;8.716;2023-02-01T16:40:34;14.45;;;3.22;;
24567;SDS011;12731;52.182;8.716;2023-02-01T16:43:01;18.15;;;3.00;;
24567;SDS011;12731;52.182;8.716;2023-02-01T16:45:28;14.68;;;3.10;;
24567;SDS011;12731;52.182;8.716;2023-02-01T16:47:54;13.85;;;2.40;;
24567;SDS011;12731;52.182;8.716;2023-02-01T16:50:22;11.80;;;2.60;;
24567;SDS011;12731;52.182;8.716;2023-02-01T16:52:50;10.80;;;2.65;;
24567;SDS011;12731;52.182;8.716;2023-02-01T16:55:19;9.18;;;2.13;;
24567;SDS011;12731;52.182;8.716;2023-02-01T16:57:48;9.15;;;2.00;;
24567;SDS011;12731;52.182;8.716;2023-02-01T17:00:14;11.80;;;2.40;;
24567;SDS011;12731;52.182;8.716;2023-02-01T17:02:50;11.23;;;2.05;;
24567;SDS011;12731;52.182;8.716;2023-02-01T17:05:17;13.52;;;2.67;;
24567;SDS011;12731;52.182;8.716;2023-02-01T17:07:43;13.75;;;2.88;;
24567;SDS011;12731;52.182;8.716;2023-02-01T17:10:17;15.63;;;3.22;;
24567;SDS011;12731;52.182;8.716;2023-02-01T17:12:58;15.52;;;3.33;;
24567;SDS011;12731;52.182;8.716;2023-02-01T17:15:26;13.00;;;3.33;;
24567;SDS011;12731;52.182;8.716;2023-02-01T17:17:54;21.73;;;4.03;;
24567;SDS011;12731;52.182;8.716;2023-02-01T17:20:23;19.20;;;4.07;;
24567;SDS011;12731;52.182;8.716;2023-02-01T17:22:50;19.23;;;3.72;;
24567;SDS011;12731;52.182;8.716;2023-02-01T17:25:20;21.65;;;4.57;;
24567;SDS011;12731;52.182;8.716;2023-02-01T17:27:48;25.83;;;4.22;;
24567;SDS011;12731;52.182;8.716;2023-02-01T17:30:14;18.30;;;4.32;;
24567;SDS011;12731;52.182;8.716;2023-02-01T17:32:41;24.15;;;4.38;;
24567;SDS011;12731;52.182;8.716;2023-02-01T17:35:26;19.45;;;4.30;;
24567;SDS011;12731;52.182;8.716;2023-02-01T17:37:54;26.08;;;4.72;;
24567;SDS011;12731;52.182;8.716;2023-02-01T17:40:21;17.02;;;4.43;;